Time;durP1;ratioP1;P1;durP2;ratioP2;P2;SDS_P1;SDS_P2;PMS_P1;PMS_P2;Temp;Humidity;BMP_temperature;BMP_pressure;BME280_temperature;BME280_humidity;BME280_pressure;Samples;Min_cycle;Max_cycle;Signal;HPM_P1;HPM_P2
2021/10/23 00:02:12;;;;;;;1.03;0.93;;;;;;;10.20;70.21;99625.69;5138129;27;41747;-81
2021/10/23 00:04:39;;;;;;;0.80;0.80;;;;;;;10.17;69.91;99626.66;5155397;27;43180;-80
2021/10/23 00:07:07;;;;;;;0.70;0.70;;;;;;;10.17;70.11;99631.94;5155322;27;38865;-81
2021/10/23 00:09:36;;;;;;;1.40;1.07;;;;;;;10.21;70.30;99633.56;5155021;27;41668;-79
2021/10/23 00:12:04;;;;;;;1.00;0.90;;;;;;;10.13;70.12;99613.66;5155451;27;41919;-84
2021/10/23 00:14:32;;;;;;;1.27;1.10;;;;;;;10.25;70.63;99628.97;5155854;27;41381;-83
2021/10/23 00:17:00;;;;;;;1.03;0.83;;;;;;;10.16;71.40;99619.63;5137815;27;40412;-82
2021/10/23 00:19:27;;;;;;;2.47;1.00;;;;;;;10.26;71.36;99626.22;5155373;27;42029;-83
2021/10/23 00:21:55;;;;;;;1.63;1.17;;;;;;;10.27;71.12;99627.06;5154986;27;42654;-82
2021/10/23 00:24:22;;;;;;;1.40;0.83;;;;;;;10.28;71.06;99624.38;5155711;27;42077;-84
2021/10/23 00:26:51;;;;;;;1.03;0.93;;;;;;;10.29;71.00;99625.22;5155250;27;38638;-81
2021/10/23 00:29:19;;;;;;;3.20;1.00;;;;;;;10.30;70.78;99632.22;5157221;27;42685;-83
2021/10/23 00:31:46;;;;;;;1.57;0.90;;;;;;;10.31;70.82;99634.81;5176066;27;41918;-84
2021/10/23 00:34:14;;;;;;;1.23;0.90;;;;;;;10.31;70.85;99636.59;5158043;27;41017;-83
2021/10/23 00:36:42;;;;;;;1.00;0.90;;;;;;;10.27;71.22;99627.94;5158993;27;39911;-82
2021/10/23 00:39:10;;;;;;;0.70;0.70;;;;;;;10.24;71.28;99629.91;5157750;27;40980;-84
2021/10/23 00:41:39;;;;;;;3.00;1.83;;;;;;;10.11;71.01;99632.25;5175720;27;41943;-83
2021/10/23 00:44:26;;;;;;;2.03;0.87;;;;;;;10.07;71.26;99641.25;5158680;27;42981;-83
2021/10/23 00:46:54;;;;;;;0.60;0.60;;;;;;;9.96;71.41;99632.97;5175976;27;38918;-82
2021/10/23 00:49:21;;;;;;;3.20;0.80;;;;;;;9.89;71.35;99648.28;5159298;27;41446;-82
2021/10/23 00:51:49;;;;;;;1.30;1.20;;;;;;;9.80;71.69;99647.84;5175717;27;43463;-83
2021/10/23 00:54:16;;;;;;;2.03;1.00;;;;;;;9.70;72.04;99644.78;5176216;27;42206;-81
2021/10/23 00:56:44;;;;;;;0.93;0.77;;;;;;;9.67;71.89;99642.28;5158607;27;39212;-85
2021/10/23 00:59:13;;;;;;;1.00;1.00;;;;;;;9.61;72.08;99651.34;5158697;27;40559;-82
2021/10/23 01:01:41;;;;;;;1.67;0.83;;;;;;;9.53;72.32;99645.53;5175397;27;42478;-84
2021/10/23 01:04:08;;;;;;;1.17;1.10;;;;;;;9.40;72.73;99636.44;5158047;27;41097;-84
2021/10/23 01:06:36;;;;;;;1.17;0.80;;;;;;;9.38;72.81;99661.25;5174787;27;39173;-83
2021/10/23 01:09:05;;;;;;;0.70;0.60;;;;;;;9.31;73.32;99658.03;5194438;27;41960;-83
2021/10/23 01:11:33;;;;;;;0.90;0.90;;;;;;;9.27;73.17;99659.94;5176377;27;43757;-83
2021/10/23 01:14:00;;;;;;;0.67;0.67;;;;;;;9.15;73.49;99652.53;5158235;27;41214;-83
2021/10/23 01:16:30;;;;;;;2.27;0.80;;;;;;;9.00;73.14;99640.88;5176023;27;39007;-83
2021/10/23 01:18:57;;;;;;;0.70;0.70;;;;;;;8.94;72.79;99651.72;5158803;27;41858;-81
2021/10/23 01:21:26;;;;;;;0.97;0.83;;;;;;;8.96;73.05;99665.72;5161304;27;42015;-80
2021/10/23 01:23:54;;;;;;;0.50;0.50;;;;;;;8.89;73.25;99680.13;5179044;27;42238;-84
2021/10/23 01:26:23;;;;;;;1.60;1.10;;;;;;;8.83;73.68;99680.38;5160887;27;38788;-83
2021/10/23 01:28:52;;;;;;;1.17;0.90;;;;;;;8.68;73.21;99675.72;5197880;27;41729;-81
2021/10/23 01:31:20;;;;;;;0.80;0.80;;;;;;;8.63;74.06;99677.72;5161448;27;43123;-83
2021/10/23 01:33:47;;;;;;;0.80;0.80;;;;;;;8.67;74.22;99688.97;5178955;27;42103;-80
2021/10/23 01:36:17;;;;;;;0.43;0.43;;;;;;;8.61;74.69;99685.69;5160958;27;39059;-84
2021/10/23 01:38:47;;;;;;;0.77;0.70;;;;;;;8.57;74.56;99691.16;5161840;27;40368;-80
2021/10/23 01:41:15;;;;;;;0.60;0.60;;;;;;;8.53;74.73;99692.22;5178463;27;41693;-81
2021/10/23 01:43:43;;;;;;;1.00;0.90;;;;;;;8.40;74.94;99675.16;5161615;27;41251;-83
2021/10/23 01:46:10;;;;;;;0.80;0.57;;;;;;;8.43;74.43;99688.22;5178327;27;38982;-82
2021/10/23 01:48:38;;;;;;;1.07;0.70;;;;;;;8.36;74.44;99690.25;5161838;27;41972;-83
2021/10/23 01:51:06;;;;;;;2.23;0.60;;;;;;;8.32;74.60;99693.06;5179241;27;42608;-80
2021/10/23 01:53:34;;;;;;;0.50;0.50;;;;;;;8.14;74.53;99682.31;5161330;27;41045;-82
2021/10/23 01:56:03;;;;;;;2.13;0.80;;;;;;;8.23;74.58;99708.31;5191949;27;40907;-83
2021/10/23 01:58:32;;;;;;;0.60;0.60;;;;;;;8.19;74.72;99704.06;5170501;27;41813;-83
2021/10/23 02:00:59;;;;;;;1.20;1.00;;;;;;;8.17;74.96;99695.34;5161372;27;41474;-81
2021/10/23 02:03:27;;;;;;;1.67;0.60;;;;;;;8.13;74.69;99698.19;5160894;27;41243;-80
2021/10/23 02:05:54;;;;;;;0.83;0.83;;;;;;;8.08;74.98;99700.13;5196929;27;39615;-82
2021/10/23 02:08:22;;;;;;;0.60;0.60;;;;;;;8.06;75.50;99697.56;5178598;27;41796;-83
2021/10/23 02:10:49;;;;;;;1.13;0.73;;;;;;;8.04;75.19;99696.75;5161224;27;41733;-79
2021/10/23 02:13:18;;;;;;;1.43;0.80;;;;;;;8.04;75.41;99702.03;5177989;27;42142;-84
2021/10/23 02:15:46;;;;;;;5.23;0.63;;;;;;;8.04;75.74;99699.38;5177844;27;40913;-81
2021/10/23 02:18:13;;;;;;;0.77;0.77;;;;;;;8.07;75.92;99703.69;5196578;27;41759;-82
2021/10/23 02:20:41;;;;;;;1.00;0.70;;;;;;;8.11;76.82;99708.78;5196773;27;42867;-80
2021/10/23 02:23:08;;;;;;;1.00;0.70;;;;;;;8.13;75.83;99704.31;5160904;27;41288;-81
2021/10/23 02:25:36;;;;;;;0.70;0.70;;;;;;;8.25;75.58;99718.81;5178530;27;39778;-81
2021/10/23 02:28:04;;;;;;;1.27;1.17;;;;;;;8.31;75.80;99718.56;5160060;27;42042;-83
2021/10/23 02:30:33;;;;;;;0.70;0.70;;;;;;;8.40;75.68;99722.66;5164527;27;42834;-81
2021/10/23 02:33:01;;;;;;;0.90;0.90;;;;;;;8.51;75.45;99726.59;5156658;27;41891;-83
2021/10/23 02:35:29;;;;;;;2.53;0.80;;;;;;;8.50;75.09;99713.44;5140364;27;38890;-79
2021/10/23 02:37:56;;;;;;;1.50;0.70;;;;;;;8.59;75.58;99707.78;5157100;27;41709;-80
2021/10/23 02:40:24;;;;;;;1.77;0.60;;;;;;;8.74;75.25;99723.00;5156921;27;43063;-83
2021/10/23 02:42:51;;;;;;;3.93;1.10;;;;;;;8.84;74.86;99729.63;5174929;27;42238;-82
2021/10/23 02:45:19;;;;;;;1.20;0.90;;;;;;;8.91;74.62;99732.84;5175340;27;41122;-83
2021/10/23 02:47:48;;;;;;;0.83;0.70;;;;;;;8.97;74.72;99732.63;5157383;27;40623;-79
2021/10/23 02:50:15;;;;;;;1.40;1.03;;;;;;;8.89;74.57;99710.97;5155869;27;41800;-83
2021/10/23 02:52:43;;;;;;;0.70;0.60;;;;;;;9.00;74.36;99720.16;5139932;27;41357;-80
2021/10/23 02:55:11;;;;;;;0.80;0.80;;;;;;;8.93;74.65;99710.75;5139491;27;39699;-83
2021/10/23 02:57:39;;;;;;;2.00;0.90;;;;;;;8.94;74.40;99711.59;5138932;27;40422;-84
2021/10/23 03:00:07;;;;;;;0.63;0.63;;;;;;;9.05;74.29;99730.50;5156752;27;41586;-81
2021/10/23 03:02:37;;;;;;;1.80;1.40;;;;;;;9.06;74.45;99723.44;5156810;27;41256;-82
2021/10/23 03:05:07;;;;;;;0.80;0.80;;;;;;;9.06;74.25;99719.00;5156218;27;38960;-83
2021/10/23 03:07:35;;;;;;;0.93;0.77;;;;;;;9.07;74.25;99722.50;5138252;27;40685;-82
2021/10/23 03:10:03;;;;;;;0.80;0.80;;;;;;;9.09;74.21;99718.03;5139822;27;42066;-81
2021/10/23 03:12:31;;;;;;;0.77;0.77;;;;;;;9.10;74.06;99719.75;5175075;27;42389;-82
2021/10/23 03:15:00;;;;;;;0.90;0.70;;;;;;;9.12;74.20;99728.47;5174563;27;40475;-80
2021/10/23 03:17:28;;;;;;;0.73;0.70;;;;;;;9.06;74.03;99723.44;5139381;27;40829;-84
2021/10/23 03:19:56;;;;;;;0.90;0.80;;;;;;;9.08;74.10;99733.03;5155779;27;43436;-81
2021/10/23 03:22:26;;;;;;;2.57;0.70;;;;;;;9.04;74.21;99730.56;5156067;27;40797;-82
2021/10/23 03:24:54;;;;;;;0.70;0.70;;;;;;;8.98;74.18;99727.28;5138683;27;40392;-80
2021/10/23 03:27:23;;;;;;;0.60;0.60;;;;;;;8.95;73.96;99722.13;5138648;27;40518;-80
2021/10/23 03:29:51;;;;;;;1.13;0.60;;;;;;;8.95;73.78;99726.53;5181291;27;42982;-81
2021/10/23 03:32:19;;;;;;;1.00;1.00;;;;;;;8.92;73.67;99740.72;5176740;27;42750;-81
2021/10/23 03:34:47;;;;;;;0.90;0.70;;;;;;;8.90;73.99;99732.00;5176915;27;40944;-83
2021/10/23 03:37:14;;;;;;;1.53;0.90;;;;;;;8.88;73.60;99725.94;5159290;27;40551;-81
2021/10/23 03:39:44;;;;;;;4.53;1.20;;;;;;;8.85;73.56;99730.50;5159706;27;42032;-83
2021/10/23 03:42:11;;;;;;;0.80;0.80;;;;;;;8.73;73.22;99715.16;5195202;27;42949;-80
2021/10/23 03:44:38;;;;;;;1.47;0.80;;;;;;;8.78;73.18;99729.88;5177520;27;39481;-83
2021/10/23 03:47:06;;;;;;;1.20;0.60;;;;;;;8.73;73.61;99734.50;5177406;27;41818;-85
2021/10/23 03:49:35;;;;;;;0.73;0.73;;;;;;;8.70;73.51;99731.97;5159105;27;41737;-81
2021/10/23 03:52:02;;;;;;;3.30;1.33;;;;;;;8.67;73.35;99737.38;5196225;27;42201;-84
2021/10/23 03:54:30;;;;;;;1.10;0.63;;;;;;;8.64;73.36;99748.94;5158718;27;40302;-82
2021/10/23 03:56:59;;;;;;;0.93;0.80;;;;;;;8.45;73.16;99718.91;5159834;27;41011;-82
2021/10/23 03:59:27;;;;;;;4.17;1.33;;;;;;;8.56;73.30;99750.16;5176345;27;42918;-79
2021/10/23 04:01:54;;;;;;;0.97;0.70;;;;;;;8.53;73.19;99752.94;5159415;27;42235;-84
2021/10/23 04:04:22;;;;;;;1.50;0.60;;;;;;;8.41;73.03;99751.63;5158980;27;39993;-80
2021/10/23 04:06:49;;;;;;;3.50;0.87;;;;;;;8.44;73.22;99766.47;5176542;27;41442;-80
2021/10/23 04:09:17;;;;;;;1.73;1.40;;;;;;;8.39;73.26;99779.00;5176439;27;44169;-82
2021/10/23 04:11:45;;;;;;;1.00;0.70;;;;;;;8.32;73.63;99778.38;5158561;27;40833;-81
2021/10/23 04:14:14;;;;;;;1.00;0.70;;;;;;;8.25;73.48;99784.78;5176180;27;39880;-81
2021/10/23 04:16:41;;;;;;;1.33;1.23;;;;;;;8.09;73.34;99766.03;5159350;27;42104;-83
2021/10/23 04:19:09;;;;;;;0.87;0.60;;;;;;;8.11;73.22;99785.31;5176188;27;42685;-84
2021/10/23 04:21:36;;;;;;;0.67;0.60;;;;;;;7.93;73.06;99770.16;5176550;27;42736;-80
2021/10/23 04:24:05;;;;;;;1.80;0.90;;;;;;;7.89;73.10;99773.84;5158576;27;39774;-80
2021/10/23 04:26:32;;;;;;;0.60;0.60;;;;;;;7.86;73.50;99779.22;5158982;27;40744;-82
2021/10/23 04:29:00;;;;;;;0.73;0.60;;;;;;;7.76;73.38;99776.06;5194070;27;42721;-84
2021/10/23 04:31:29;;;;;;;1.30;0.90;;;;;;;7.80;73.29;99800.53;5176591;27;41087;-81
2021/10/23 04:33:57;;;;;;;1.70;1.00;;;;;;;7.63;73.41;99776.56;5159023;27;39169;-84
2021/10/23 04:36:24;;;;;;;0.40;0.40;;;;;;;7.58;73.28;99782.84;5175979;27;41826;-81
2021/10/23 04:38:52;;;;;;;0.63;0.60;;;;;;;7.61;73.25;99804.75;5176656;27;42160;-82
2021/10/23 04:41:19;;;;;;;0.63;0.60;;;;;;;7.52;73.37;99812.06;5175712;27;42771;-81
2021/10/23 04:43:47;;;;;;;0.50;0.50;;;;;;;7.44;73.24;99819.38;5159638;27;38882;-82
2021/10/23 04:46:14;;;;;;;0.77;0.77;;;;;;;7.36;73.54;99808.25;5166872;27;41579;-79
2021/10/23 04:48:44;;;;;;;0.97;0.63;;;;;;;7.30;73.76;99811.06;5214559;27;43411;-81
2021/10/23 04:51:11;;;;;;;1.40;0.73;;;;;;;7.10;73.41;99800.34;5177702;27;41991;-79
2021/10/23 04:53:39;;;;;;;0.63;0.63;;;;;;;7.18;74.08;99814.13;5179092;27;41036;-80
2021/10/23 04:56:07;;;;;;;0.70;0.70;;;;;;;7.12;74.43;99815.19;5191911;27;42037;-82
2021/10/23 04:58:37;;;;;;;0.77;0.70;;;;;;;7.08;74.50;99810.94;5183297;27;42893;-83
2021/10/23 05:01:04;;;;;;;1.83;1.00;;;;;;;7.04;74.48;99808.47;5178330;27;42231;-80
2021/10/23 05:03:32;;;;;;;1.50;1.00;;;;;;;6.94;74.67;99801.75;5180227;27;39672;-80
2021/10/23 05:06:01;;;;;;;0.97;0.80;;;;;;;6.99;75.04;99813.00;5164669;27;41948;-81
2021/10/23 05:08:29;;;;;;;0.70;0.70;;;;;;;6.98;75.42;99816.56;5164115;27;41506;-81
2021/10/23 05:10:56;;;;;;;2.93;1.00;;;;;;;6.94;76.04;99822.81;5176712;27;41037;-81
2021/10/23 05:13:24;;;;;;;1.03;0.80;;;;;;;6.91;76.07;99822.94;5158134;27;39947;-81
2021/10/23 05:15:51;;;;;;;1.13;0.70;;;;;;;6.78;76.24;99812.81;5157667;27;40290;-83
2021/10/23 05:18:19;;;;;;;1.30;0.90;;;;;;;6.85;76.27;99826.63;5175028;27;41894;-80
2021/10/23 05:20:46;;;;;;;1.23;1.10;;;;;;;6.82;76.15;99829.34;5157444;27;41001;-83
2021/10/23 05:23:15;;;;;;;1.80;1.20;;;;;;;6.81;76.79;99831.13;5193806;27;39892;-85
2021/10/23 05:25:43;;;;;;;2.40;1.27;;;;;;;6.82;77.54;99822.31;5193995;27;41760;-81
2021/10/23 05:28:11;;;;;;;0.80;0.80;;;;;;;6.81;77.32;99831.13;5174814;27;43681;-83
2021/10/23 05:30:39;;;;;;;1.57;1.47;;;;;;;6.79;76.81;99835.59;5161575;27;42589;-83
2021/10/23 05:33:07;;;;;;;1.67;1.10;;;;;;;6.83;76.89;99842.47;5172818;27;39924;-80
2021/10/23 05:35:34;;;;;;;0.97;0.83;;;;;;;6.78;76.76;99836.50;5154692;27;40644;-81
2021/10/23 05:38:02;;;;;;;0.80;0.80;;;;;;;6.80;76.69;99832.03;5137777;27;41779;-81
2021/10/23 05:40:31;;;;;;;0.87;0.83;;;;;;;6.75;76.80;99839.22;5137270;27;41970;-82
2021/10/23 05:42:59;;;;;;;2.50;0.93;;;;;;;6.57;76.72;99813.44;5154884;27;39490;-79
2021/10/23 05:45:26;;;;;;;0.97;0.93;;;;;;;6.64;76.68;99846.59;5153473;27;40576;-81
2021/10/23 05:47:54;;;;;;;1.10;0.97;;;;;;;6.62;76.31;99847.53;5154651;27;42846;-83
2021/10/23 05:50:22;;;;;;;2.83;1.37;;;;;;;6.62;76.61;99853.66;5172243;27;42416;-81
2021/10/23 05:52:49;;;;;;;1.83;1.10;;;;;;;6.64;76.20;99854.50;5171387;27;40069;-81
2021/10/23 05:55:16;;;;;;;2.23;1.10;;;;;;;6.67;76.24;99857.03;5153112;27;41035;-80
2021/10/23 05:57:46;;;;;;;1.13;0.97;;;;;;;6.61;75.90;99841.41;5136630;27;41430;-81
2021/10/23 06:00:15;;;;;;;0.70;0.70;;;;;;;6.34;75.79;99800.16;5146675;27;41238;-81
2021/10/23 06:02:44;;;;;;;0.50;0.50;;;;;;;6.63;75.89;99857.16;5162635;27;40031;-81
2021/10/23 06:05:11;;;;;;;1.10;1.07;;;;;;;6.47;75.54;99833.06;5153163;27;40639;-80
2021/10/23 06:07:41;;;;;;;0.87;0.80;;;;;;;6.50;75.39;99848.78;5178160;27;42664;-81
2021/10/23 06:10:10;;;;;;;1.00;1.00;;;;;;;6.45;75.33;99840.16;5178264;27;42235;-80
2021/10/23 06:12:38;;;;;;;0.90;0.90;;;;;;;6.41;75.19;99849.06;5161188;27;40439;-79
2021/10/23 06:15:09;;;;;;;0.80;0.80;;;;;;;6.37;75.43;99866.69;5196433;27;41529;-83
2021/10/23 06:17:37;;;;;;;1.27;1.17;;;;;;;6.34;75.16;99864.16;5178719;27;43042;-82
2021/10/23 06:20:06;;;;;;;0.90;0.90;;;;;;;6.31;75.30;99885.28;5160376;27;42472;-80
2021/10/23 06:22:33;;;;;;;1.67;0.63;;;;;;;6.30;75.25;99885.34;5197389;27;40059;-82
2021/10/23 06:25:01;;;;;;;1.00;0.90;;;;;;;6.26;75.07;99881.06;5154284;27;42112;-79
2021/10/23 06:27:28;;;;;;;5.93;3.80;;;;;;;6.20;75.84;99865.44;5156858;27;43544;-83
2021/10/23 06:29:56;;;;;;;2.97;1.70;;;;;;;6.28;75.50;99889.78;5155614;27;41944;-84
2021/10/23 06:32:25;;;;;;;2.63;2.07;;;;;;;6.31;75.53;99884.41;5140020;27;40925;-81
2021/10/23 06:34:53;;;;;;;1.50;1.40;;;;;;;6.39;75.28;99892.97;5166887;27;41682;-79
2021/10/23 06:37:20;;;;;;;2.60;1.70;;;;;;;6.41;75.10;99880.63;5140084;27;42859;-81
2021/10/23 06:39:50;;;;;;;1.67;1.30;;;;;;;6.66;74.90;99905.31;5173126;27;42215;-81
2021/10/23 06:42:17;;;;;;;1.50;1.40;;;;;;;6.79;75.28;99882.97;5153221;27;40007;-79
2021/10/23 06:44:44;;;;;;;1.93;1.40;;;;;;;7.03;74.90;99896.28;5154851;27;41666;-83
2021/10/23 06:47:13;;;;;;;1.83;1.10;;;;;;;7.22;74.89;99897.41;5140922;27;42187;-84
2021/10/23 06:49:43;;;;;;;1.20;1.10;;;;;;;7.40;74.67;99902.09;5155963;27;42068;-85
2021/10/23 06:52:10;;;;;;;1.17;1.10;;;;;;;7.58;74.24;99904.09;5148403;27;39891;-83
2021/10/23 06:54:38;;;;;;;1.83;1.30;;;;;;;7.75;73.91;99913.22;5137776;27;40742;-82
2021/10/23 06:57:06;;;;;;;1.70;0.90;;;;;;;7.91;73.85;99909.16;5153885;27;41737;-84
2021/10/23 06:59:34;;;;;;;1.33;1.23;;;;;;;8.06;73.81;99924.44;5139543;27;41414;-82
2021/10/23 07:02:01;;;;;;;1.17;1.10;;;;;;;8.14;73.63;99919.75;5140337;27;39004;-84
2021/10/23 07:04:29;;;;;;;1.57;1.47;;;;;;;8.34;73.49;99939.31;5157129;27;41558;-83
2021/10/23 07:06:58;;;;;;;1.63;1.43;;;;;;;8.48;73.29;99947.59;5191133;27;42779;-82
2021/10/23 07:09:26;;;;;;;2.10;1.63;;;;;;;8.57;72.98;99944.63;5194299;27;42615;-82
2021/10/23 07:11:53;;;;;;;1.50;1.40;;;;;;;8.66;73.16;99941.63;5179874;27;39907;-81
2021/10/23 07:14:20;;;;;;;3.20;2.40;;;;;;;8.74;73.12;99944.84;5157338;27;41639;-82
2021/10/23 07:16:48;;;;;;;3.63;1.97;;;;;;;8.95;73.11;99951.09;5143899;27;41885;-83
2021/10/23 07:19:15;;;;;;;8.03;3.03;;;;;;;9.11;73.17;99957.53;5159357;27;41949;-79
2021/10/23 07:21:43;;;;;;;5.67;2.97;;;;;;;9.26;72.76;99964.00;5140521;27;39628;-82
2021/10/23 07:24:13;;;;;;;2.47;2.10;;;;;;;9.38;72.70;99968.78;5139403;27;42643;-81
2021/10/23 07:26:40;;;;;;;2.80;1.97;;;;;;;9.46;72.79;99969.34;5164807;27;42597;-83
2021/10/23 07:29:09;;;;;;;3.13;1.50;;;;;;;9.54;72.84;99964.59;5175090;27;42554;-81
2021/10/23 07:31:36;;;;;;;1.30;1.20;;;;;;;9.58;72.99;99971.50;5174727;27;39869;-85
2021/10/23 07:34:04;;;;;;;1.20;1.10;;;;;;;9.48;72.81;99949.00;5157901;27;40888;-79
2021/10/23 07:36:31;;;;;;;3.23;1.70;;;;;;;9.59;73.13;99965.28;5142039;27;41717;-80
2021/10/23 07:38:59;;;;;;;1.33;1.10;;;;;;;9.74;73.11;99974.38;5171218;27;42291;-80
2021/10/23 07:41:28;;;;;;;4.57;2.70;;;;;;;9.92;73.22;99973.59;5161577;27;39856;-82
2021/10/23 07:43:56;;;;;;;2.23;1.53;;;;;;;10.22;72.62;99974.13;5148609;27;42044;-84
2021/10/23 07:46:23;;;;;;;1.50;1.40;;;;;;;10.94;71.89;99984.16;5155253;27;42896;-81
2021/10/23 07:48:50;;;;;;;3.03;1.40;;;;;;;11.76;71.06;99986.38;5141926;27;42246;-84
2021/10/23 07:51:19;;;;;;;1.80;1.17;;;;;;;12.10;70.10;99990.03;5189796;27;39634;-83
2021/10/23 07:53:46;;;;;;;3.23;1.80;;;;;;;12.17;69.47;99986.13;5164637;27;40664;-84
2021/10/23 07:56:14;;;;;;;4.23;1.70;;;;;;;12.17;68.66;99991.44;5144961;27;42416;-81
2021/10/23 07:58:43;;;;;;;4.27;1.73;;;;;;;12.16;68.57;99997.69;5154454;27;40774;-84
2021/10/23 08:01:11;;;;;;;4.13;1.80;;;;;;;12.20;68.03;99986.84;5170807;27;39272;-84
2021/10/23 08:03:39;;;;;;;3.83;1.70;;;;;;;12.47;67.83;99995.19;5175476;27;41571;-83
2021/10/23 08:06:06;;;;;;;2.17;1.87;;;;;;;13.28;65.60;99993.50;5172195;27;43331;-84
2021/10/23 08:08:34;;;;;;;3.30;1.40;;;;;;;14.07;63.96;99985.44;5184526;27;42409;-82
2021/10/23 08:11:04;;;;;;;3.50;1.57;;;;;;;14.88;62.68;100019.59;5156248;27;40053;-84
2021/10/23 08:13:32;;;;;;;1.87;1.10;;;;;;;15.13;61.12;100029.59;5181301;27;41323;-85
2021/10/23 08:16:02;;;;;;;1.80;1.30;;;;;;;15.79;59.37;100029.81;5147042;27;43367;-80
2021/10/23 08:18:30;;;;;;;2.53;1.00;;;;;;;16.77;56.93;100056.19;5153227;27;42370;-82
2021/10/23 08:20:58;;;;;;;1.37;1.20;;;;;;;16.39;56.13;100044.56;5141449;27;38827;-82
2021/10/23 08:23:26;;;;;;;2.17;1.33;;;;;;;16.32;56.86;100061.97;5152085;27;40870;-85
2021/10/23 08:25:54;;;;;;;2.00;0.93;;;;;;;16.10;57.20;100066.06;5147432;27;41480;-84
2021/10/23 08:28:22;;;;;;;1.60;1.20;;;;;;;15.75;56.65;100051.47;5171888;27;43108;-83
2021/10/23 08:30:50;;;;;;;1.20;1.00;;;;;;;15.42;56.90;100041.97;5158252;27;41091;-84
2021/10/23 08:33:19;;;;;;;1.40;1.30;;;;;;;15.46;57.33;100072.00;5176138;27;41872;-85
2021/10/23 08:35:47;;;;;;;1.00;1.00;;;;;;;15.43;57.33;100081.06;5176036;27;42939;-81
2021/10/23 08:38:15;;;;;;;1.67;1.30;;;;;;;15.49;56.75;100084.28;5145777;27;40803;-82
2021/10/23 08:40:43;;;;;;;1.00;0.90;;;;;;;15.44;57.41;100061.44;5171569;27;38834;-83
2021/10/23 08:43:11;;;;;;;1.00;1.00;;;;;;;15.49;57.33;100073.63;5159009;27;42001;-80
2021/10/23 08:45:39;;;;;;;2.77;1.20;;;;;;;15.36;56.98;100058.38;5149895;27;41474;-82
2021/10/23 08:48:07;;;;;;;0.87;0.70;;;;;;;15.43;57.03;100070.41;5185277;27;42729;-83
2021/10/23 08:50:39;;;;;;;1.80;1.00;;;;;;;15.49;56.89;100073.63;5155517;27;20232;-80
2021/10/23 08:53:07;;;;;;;3.20;1.63;;;;;;;15.61;56.74;100075.53;5141063;27;42189;-80
2021/10/23 08:55:35;;;;;;;1.27;0.90;;;;;;;16.15;55.70;100073.78;5167332;27;41918;-82
2021/10/23 08:58:05;;;;;;;1.47;1.07;;;;;;;16.58;54.02;100082.44;5166988;27;43199;-83
2021/10/23 09:00:33;;;;;;;0.70;0.70;;;;;;;16.87;52.45;100100.09;5157501;27;39574;-80
2021/10/23 09:03:01;;;;;;;1.53;1.00;;;;;;;16.86;52.26;100109.06;5175951;27;40692;-80
2021/10/23 09:05:32;;;;;;;1.00;0.90;;;;;;;16.70;52.63;100100.38;5150600;27;43233;-80
2021/10/23 09:08:15;;;;;;;1.33;0.90;;;;;;;16.48;52.51;100098.25;5143817;27;42187;-80
2021/10/23 09:10:48;;;;;;;1.10;1.10;;;;;;;16.27;52.67;100091.69;5153689;27;38723;-80
2021/10/23 09:13:27;;;;;;;1.50;0.70;;;;;;;16.12;52.95;100106.91;5157509;27;40744;-84
2021/10/23 09:15:55;;;;;;;1.70;1.27;;;;;;;15.89;53.73;100098.66;5147897;27;41732;-82
2021/10/23 09:18:42;;;;;;;0.80;0.80;;;;;;;15.58;53.89;100091.78;5174688;27;42801;-84
2021/10/23 09:21:17;;;;;;;2.83;0.73;;;;;;;15.31;54.68;100092.53;5157699;27;40626;-82
2021/10/23 09:23:47;;;;;;;1.50;1.33;;;;;;;15.09;55.43;100070.75;5145134;27;41013;-81
2021/10/23 09:26:34;;;;;;;2.57;0.90;;;;;;;15.14;55.67;100083.81;5171691;27;43051;-82
2021/10/23 09:29:19;;;;;;;0.90;0.70;;;;;;;15.04;56.05;100078.19;5153235;27;42473;-81
2021/10/23 09:31:47;;;;;;;1.27;0.93;;;;;;;14.99;56.14;100085.63;5158278;27;40637;-81
2021/10/23 09:34:16;;;;;;;1.33;1.00;;;;;;;15.13;55.99;100093.63;5149164;27;42117;-81
2021/10/23 09:36:48;;;;;;;2.27;1.10;;;;;;;15.56;54.67;100081.19;5154454;27;43292;-83
2021/10/23 09:39:29;;;;;;;0.90;0.90;;;;;;;16.37;53.82;100110.63;5168198;27;41646;-85
2021/10/23 09:42:09;;;;;;;1.53;1.43;;;;;;;16.77;52.02;100074.06;5164222;27;41131;-84
2021/10/23 09:44:39;;;;;;;1.47;1.00;;;;;;;17.27;49.60;100134.81;5157564;27;40900;-83
2021/10/23 09:47:08;;;;;;;2.73;1.43;;;;;;;17.24;49.80;100118.94;5178649;27;42845;-85
2021/10/23 09:49:36;;;;;;;0.80;0.80;;;;;;;17.22;49.99;100110.16;5174431;27;41167;-81
2021/10/23 09:52:07;;;;;;;1.20;1.10;;;;;;;17.31;49.75;100128.25;5160872;27;40000;-83
2021/10/23 09:54:38;;;;;;;0.60;0.57;;;;;;;17.35;49.91;100129.75;5160812;27;41919;-83
2021/10/23 09:57:10;;;;;;;0.80;0.80;;;;;;;17.49;48.72;100140.38;5173862;27;42630;-84
2021/10/23 09:59:39;;;;;;;1.23;0.70;;;;;;;18.08;47.80;100137.94;5147062;27;42335;-82
2021/10/23 10:02:07;;;;;;;1.37;0.80;;;;;;;18.82;46.84;100138.69;5166428;27;39699;-84
2021/10/23 10:04:36;;;;;;;1.73;0.97;;;;;;;18.94;46.18;100148.50;5172959;27;42712;-82
2021/10/23 10:07:05;;;;;;;0.83;0.83;;;;;;;19.91;44.49;100146.19;5160188;27;43510;-84
2021/10/23 10:09:33;;;;;;;2.20;0.93;;;;;;;20.63;42.23;100164.53;5147283;27;41414;-82
2021/10/23 10:12:02;;;;;;;1.27;0.80;;;;;;;21.30;40.61;100148.06;5138752;27;39884;-84
2021/10/23 10:14:34;;;;;;;1.27;0.60;;;;;;;21.06;41.31;100159.06;5154927;27;42076;-83
2021/10/23 10:17:03;;;;;;;1.37;0.83;;;;;;;20.51;40.97;100181.72;5143511;27;43077;-82
2021/10/23 10:19:31;;;;;;;0.60;0.57;;;;;;;19.88;42.27;100175.16;5174083;27;42635;-83
2021/10/23 10:22:05;;;;;;;0.40;0.40;;;;;;;19.26;42.59;100175.56;5159482;27;39244;-84
2021/10/23 10:24:37;;;;;;;0.90;0.90;;;;;;;18.70;43.22;100166.47;5177675;27;40520;-82
2021/10/23 10:27:09;;;;;;;1.90;0.60;;;;;;;18.07;44.39;100140.72;5142463;27;42767;-83
2021/10/23 10:29:41;;;;;;;1.80;0.80;;;;;;;17.75;45.00;100162.66;5139054;27;42395;-83
2021/10/23 10:32:17;;;;;;;3.13;1.00;;;;;;;17.12;46.03;100109.97;5155806;27;39983;-84
2021/10/23 10:35:30;;;;;;;2.20;0.60;;;;;;;16.93;46.95;100130.94;5154995;27;40235;-80
2021/10/23 10:43:30;;;;;;;1.10;0.80;;;;;;;16.38;48.65;100133.75;5166435;27;38960;-82
2021/10/23 10:46:01;;;;;;;0.80;0.80;;;;;;;16.41;48.76;100133.53;5185737;27;42706;-83
2021/10/23 10:48:47;;;;;;;1.80;0.90;;;;;;;16.67;48.76;100129.16;5161793;27;41798;-82
2021/10/23 10:51:23;;;;;;;2.20;0.73;;;;;;;17.11;48.86;100126.13;5176461;27;42367;-81
2021/10/23 10:54:09;;;;;;;0.83;0.60;;;;;;;17.80;47.36;100131.03;5159156;27;38873;-83
2021/10/23 10:56:47;;;;;;;2.10;0.60;;;;;;;18.21;46.38;100141.41;5177342;27;40612;-83
2021/10/23 10:59:54;;;;;;;0.83;0.83;;;;;;;18.12;46.25;100123.34;5167875;27;44069;-82
2021/10/23 11:02:35;;;;;;;1.60;0.87;;;;;;;17.98;45.81;100142.25;5170728;27;42536;-84
2021/10/23 11:05:27;;;;;;;0.50;0.50;;;;;;;17.84;46.83;100131.66;5159455;27;40885;-84
2021/10/23 11:08:10;;;;;;;1.47;0.63;;;;;;;17.65;46.96;100096.47;5176561;27;43455;-81
2021/10/23 11:11:00;;;;;;;0.70;0.70;;;;;;;17.81;46.50;100108.63;5173669;27;43203;-82
2021/10/23 11:13:30;;;;;;;0.93;0.50;;;;;;;17.82;45.96;100137.13;5176689;27;42632;-82
2021/10/23 11:15:59;;;;;;;1.70;0.50;;;;;;;17.54;46.06;100137.38;5148353;27;39085;-83
2021/10/23 11:18:28;;;;;;;0.53;0.50;;;;;;;17.29;47.40;100127.53;5141794;27;40974;-84
2021/10/23 11:20:56;;;;;;;1.50;0.87;;;;;;;17.01;47.88;100122.38;5154830;27;41728;-81
2021/10/23 11:23:24;;;;;;;2.20;0.60;;;;;;;16.68;48.59;100109.50;5179999;27;42326;-85
2021/10/23 11:25:52;;;;;;;1.30;0.90;;;;;;;16.24;48.50;100072.31;5176796;27;40351;-85
2021/10/23 11:28:19;;;;;;;0.90;0.90;;;;;;;16.31;49.32;100121.75;5175725;27;41773;-84
2021/10/23 11:30:47;;;;;;;0.73;0.73;;;;;;;16.15;49.21;100122.75;5176643;27;42929;-83
2021/10/23 11:33:20;;;;;;;0.87;0.50;;;;;;;16.05;50.05;100110.94;5176535;27;41175;-84
2021/10/23 11:35:51;;;;;;;1.67;0.93;;;;;;;15.82;49.89;100074.19;5170017;27;40602;-82
2021/10/23 11:38:21;;;;;;;1.07;0.63;;;;;;;16.12;50.41;100100.69;5158742;27;41922;-80
2021/10/23 11:40:54;;;;;;;1.23;0.60;;;;;;;16.41;50.21;100120.19;5158898;27;42947;-81
2021/10/23 11:43:22;;;;;;;0.67;0.60;;;;;;;16.47;49.58;100125.09;5152889;27;41854;-81
2021/10/23 11:45:50;;;;;;;0.90;0.73;;;;;;;16.57;49.28;100133.41;5183796;27;40196;-82
2021/10/23 11:48:20;;;;;;;2.00;1.10;;;;;;;16.63;49.60;100133.00;5175478;27;41733;-81
2021/10/23 11:50:50;;;;;;;0.70;0.70;;;;;;;16.59;49.14;100115.41;5175279;27;42945;-82
2021/10/23 11:53:20;;;;;;;2.57;0.90;;;;;;;16.78;48.39;100143.53;5160654;27;41693;-82